Recluse, Wyoming
Current Conditions -  °F | °C
As of 11:09 PM on Tuesday 21 Oct 2014 (Local Time) from KGCC Reporting Station
Light Rain Light Rain  
Wind Chill: 60°   Ceiling: Unl
Heat Index: 60°   Visibility: 10mi
Dew Point: 36°   Wind: 16mph
Humidity: 41%   Direction: 340°NNW
Pressure: 29.86"   Gusts: NA
Location:  44.74°N, 105.71°W
Report Text: KGCC 220509Z AUTO 34014KT 10SM -RA CLR 16/02 A2986 RMK AO2 WSHFT 0449 RAB08 P0000 T01560022
Loading
Personal Weather Stations






























Interactive Weather Map
Tropical Storm Tracking
New forecast layout! Learn more

10-Day Weather Forecast

Advertisements
Track Severe Weather on mobile